Paraburdoo, Western Australia

7:53 PM AWST on August 31, 2015 (GMT +0800)
Paraburdoo | | Change Station
CLOSE
Current Station
Airport
Location: Paraburdoo Airport,
Elevation: 1404 ft
Nearby Weather Stations

Elev 1404 ft 23.17 °S, 117.75 °E | Updated 53 minutes ago

Scattered Clouds
Scattered Clouds
73 °F
Feels Like 73 °F
N
7
Wind Variable Wind from WSW

Today
High -- | Low -- °F
--% Chance of Precip.
Yesterday
High -- | Low -- °F
Precip. -- in
6:21 AM 5:58 PM
Waning Gibbous, 96% visible
Pressure 30.01 in
Visibility 6.2 miles
Clouds Scattered Clouds 8900 ft
Dew Point 39 °F
Humidity 29%
Rainfall 0.00 in
Snow Depth Not available.
UV 0 out of 12
Pollen Not available.
Air Quality Not available.
Flu Activity Not available.
METAR YPBO 311100Z AUTO 24006KT 9999 // SCT089 23/04 Q1016
Pressure 30.01 in
Visibility 6.2 miles
Clouds Scattered Clouds 8900 ft
Dew Point 39 °F
Humidity 29%
Rainfall 0.00 in
Snow Depth Not available.
UV 0 out of 12
Pollen Not available.
Air Quality Not available.
Flu Activity Not available.
METAR YPBO 311100Z AUTO 24006KT 9999 // SCT089 23/04 Q1016

10-Day Weather Forecast

×

Almanac

Astronomy

Aug. 31, 2015 Rise Set
Actual Time
Civil Twilight
Nautical Twilight
Astronomical Twilight
Moon
Length of Visible Light
Length of Day
Tomorrow will be .
, % of the Moon is Illuminated

Today's Extremes

Country Highs Country Lows

Community

WunderPhotos

Upload Photos

1,851,219 photos uploaded!

WunderBlogs® & News

Nearby

Air Quality

  Air Quality AQ Index Pollutant
Not available.

Snow Depth

Station Depth Elevation

Earthquake Activity

City Distance Mag. Time & Date
Minimum magnitude displayed is 2.5.

Coastal Water Temperatures

Place Temperature

Stations

Nearby Weather Stations

Station Location Temp. Windchill Dew Point Humidity Wind Precip. Elev Updated Type